Time;durP1;ratioP1;P1;durP2;ratioP2;P2;SDS_P1;SDS_P2;PMS_P1;PMS_P2;Temp;Humidity;BMP_temperature;BMP_pressure;BME280_temperature;BME280_humidity;BME280_pressure;Samples;Min_cycle;Max_cycle;Signal;HPM_P1;HPM_P2
2024/03/07 06:41:05;;;;;;;104.57;48.97;;;;;;;;;;2091852;27;20535;-60
2024/03/07 07:04:44;;;;;;;46.05;24.17;;;;;;;3.17;86.11;96919.63;2085209;27;20552;-59
2024/03/07 07:06:59;;;;;;;44.50;24.67;;;;;;;3.63;84.94;96949.25;2083678;28;20561;-59
2024/03/07 07:09:06;;;;;;;40.88;23.33;;;;;;;3.62;84.08;96916.53;2082706;28;21095;-59
2024/03/07 07:10:18;;;;;;;40.58;23.08;;;;;;;3.90;83.80;96953.19;2078701;28;20202;-59
2024/03/07 07:12:19;;;;;;;44.20;23.40;;;;;;;3.96;82.38;96946.22;2090242;28;20577;-61
2024/03/07 07:13:20;;;;;;;38.75;22.38;;;;;;;3.67;82.49;96950.91;2085785;28;20723;-61
2024/03/07 07:14:22;;;;;;;40.25;22.60;;;;;;;3.96;83.25;96951.38;2084133;28;20284;-61
2024/03/07 07:15:23;;;;;;;41.53;23.45;;;;;;;4.20;81.66;96957.94;2081589;28;20217;-61
2024/03/07 07:16:25;;;;;;;36.50;22.13;;;;;;;4.12;81.76;96952.03;2081907;28;20201;-61
2024/03/07 07:17:28;;;;;;;36.67;22.45;;;;;;;4.32;81.93;96955.19;2084001;28;20200;-61
2024/03/07 07:18:30;;;;;;;43.92;21.70;;;;;;;4.49;81.50;96946.31;2083686;28;20220;-61
2024/03/07 07:19:39;;;;;;;39.47;23.00;;;;;;;4.57;81.35;96953.09;2077719;28;20207;-68
2024/03/07 07:20:41;;;;;;;38.92;21.55;;;;;;;4.45;81.01;96940.34;2077902;28;20285;-69
2024/03/07 07:21:43;;;;;;;35.45;22.75;;;;;;;4.84;80.45;96944.91;2077859;28;20196;-68
2024/03/07 07:22:46;;;;;;;38.40;22.70;;;;;;;5.12;79.07;96947.00;2078040;28;20854;-69
2024/03/07 07:23:47;;;;;;;34.28;22.30;;;;;;;5.13;79.02;96952.16;2084164;28;20246;-68
2024/03/07 07:24:49;;;;;;;37.17;21.20;;;;;;;5.16;79.38;96948.66;2084000;28;20201;-69
2024/03/07 07:25:50;;;;;;;38.85;22.77;;;;;;;5.31;78.46;96943.19;2085144;28;20188;-68
2024/03/07 07:26:52;;;;;;;34.67;21.90;;;;;;;5.31;77.60;96940.59;2083486;28;20653;-68
2024/03/07 07:27:53;;;;;;;38.97;21.20;;;;;;;5.11;77.95;96940.13;2080660;28;20246;-68
2024/03/07 07:28:55;;;;;;;34.78;21.63;;;;;;;5.17;77.58;96946.03;2084682;28;20628;-68
2024/03/07 07:29:57;;;;;;;34.00;21.45;;;;;;;5.46;78.13;96942.03;2083873;28;20193;-68
2024/03/07 07:30:58;;;;;;;41.80;21.02;;;;;;;5.70;76.87;96943.28;2082544;28;20197;-68
2024/03/07 07:32:00;;;;;;;37.00;21.65;;;;;;;5.78;76.56;96940.53;2082831;28;20696;-68
2024/03/07 07:33:02;;;;;;;40.90;21.35;;;;;;;5.71;76.63;96952.75;2080380;28;20237;-69
2024/03/07 07:34:04;;;;;;;35.45;20.80;;;;;;;5.63;74.37;96949.47;2073832;28;20233;-68
2024/03/07 07:35:11;;;;;;;39.90;21.95;;;;;;;5.33;75.72;96946.59;2078283;28;20198;-68
2024/03/07 07:36:13;;;;;;;37.95;21.85;;;;;;;5.61;76.63;96909.78;2078161;28;20193;-69
2024/03/07 07:37:14;;;;;;;30.80;19.58;;;;;;;6.29;76.20;96943.78;2077436;28;20191;-68
2024/03/07 07:38:16;;;;;;;34.67;21.52;;;;;;;6.30;75.43;96942.91;2075698;28;20251;-69
2024/03/07 07:39:17;;;;;;;33.10;19.45;;;;;;;6.39;74.83;96937.50;2075220;28;20216;-66
2024/03/07 07:40:22;;;;;;;35.80;19.80;;;;;;;6.31;73.24;96936.81;2077752;28;20200;-66
2024/03/07 07:41:24;;;;;;;33.30;19.95;;;;;;;6.55;73.39;96932.78;2077108;28;20236;-67
2024/03/07 07:42:25;;;;;;;29.83;19.23;;;;;;;6.87;73.13;96936.34;2077955;28;20395;-65
2024/03/07 07:43:28;;;;;;;132.35;70.47;;;;;;;6.94;73.17;96931.84;2076457;28;20251;-66
2024/03/07 07:44:43;;;;;;;63.53;39.45;;;;;;;7.10;71.25;96940.09;2075917;28;20201;-66
2024/03/07 07:45:44;;;;;;;38.88;22.20;;;;;;;6.59;72.43;96931.84;2075397;28;20268;-67
2024/03/07 07:46:46;;;;;;;47.22;29.60;;;;;;;6.92;72.19;96931.03;2076917;28;20220;-67
2024/03/07 07:47:52;;;;;;;37.83;22.25;;;;;;;7.17;71.62;96932.13;2078210;28;20209;-67
2024/03/07 07:48:55;;;;;;;36.03;21.10;;;;;;;7.25;71.75;96936.22;2076489;28;20229;-67
2024/03/07 07:49:57;;;;;;;31.08;20.52;;;;;;;7.56;70.87;96930.22;2074234;28;20206;-67
2024/03/07 07:50:59;;;;;;;36.13;19.38;;;;;;;7.68;69.50;96919.44;2076900;28;20250;-67
2024/03/07 07:52:01;;;;;;;36.45;19.42;;;;;;;7.24;69.90;96924.13;2077317;28;20205;-67
2024/03/07 07:53:07;;;;;;;31.85;19.05;;;;;;;7.76;70.11;96917.50;2076765;28;20678;-67
2024/03/07 07:54:09;;;;;;;30.02;19.25;;;;;;;8.08;68.93;96920.88;2075509;28;20459;-68
2024/03/07 07:55:14;;;;;;;28.45;19.02;;;;;;;8.27;68.21;96921.16;2077543;28;20247;-67
2024/03/07 07:56:16;;;;;;;29.85;17.85;;;;;;;8.37;69.02;96913.06;2076853;28;20225;-67
2024/03/07 07:57:17;;;;;;;31.33;19.08;;;;;;;8.47;68.43;96923.19;2075695;28;20222;-67
2024/03/07 07:58:19;;;;;;;34.05;20.30;;;;;;;8.73;67.60;96931.03;2075941;28;20229;-67
2024/03/07 07:59:20;;;;;;;36.25;18.73;;;;;;;8.86;67.96;96921.91;2077451;28;20277;-67
2024/03/07 08:00:28;;;;;;;32.33;18.52;;;;;;;9.09;66.58;96926.38;2075673;28;20280;-68
2024/03/07 08:01:33;;;;;;;30.00;19.23;;;;;;;9.27;65.76;96918.81;2077743;28;20200;-67
2024/03/07 08:02:37;;;;;;;32.45;18.67;;;;;;;9.28;65.12;96918.75;2077062;28;20237;-67
2024/03/07 08:03:40;;;;;;;32.40;20.05;;;;;;;9.69;64.19;96910.34;2075975;28;20308;-67
2024/03/07 08:04:42;;;;;;;35.67;18.45;;;;;;;9.46;63.54;96922.47;2075219;28;20287;-67
2024/03/07 08:05:47;;;;;;;32.03;20.20;;;;;;;9.40;62.83;96921.84;2075281;28;20649;-67
2024/03/07 08:06:48;;;;;;;30.83;19.60;;;;;;;9.15;64.88;96914.88;2075654;28;20205;-67
2024/03/07 08:07:58;;;;;;;32.92;20.23;;;;;;;9.47;65.38;96924.16;2076109;28;20208;-66
2024/03/07 08:08:59;;;;;;;31.80;18.33;;;;;;;8.93;66.60;96920.81;2075867;28;20238;-67
2024/03/07 08:10:01;;;;;;;32.58;20.98;;;;;;;9.22;66.99;96923.31;2076471;28;20237;-67
2024/03/07 08:11:03;;;;;;;34.40;19.88;;;;;;;9.20;65.97;96914.72;2076554;28;20660;-67
2024/03/07 08:12:06;;;;;;;29.13;19.42;;;;;;;9.23;66.19;96919.81;2073370;28;20234;-67
2024/03/07 08:13:13;;;;;;;31.50;20.40;;;;;;;9.09;66.35;96917.69;2076544;28;20228;-67
2024/03/07 08:14:14;;;;;;;30.92;20.45;;;;;;;9.05;64.98;96916.94;2077391;28;20220;-67
2024/03/07 08:15:16;;;;;;;29.38;19.67;;;;;;;9.27;66.18;96905.78;2076906;28;20201;-67
2024/03/07 08:16:18;;;;;;;32.85;19.98;;;;;;;9.48;65.68;96912.84;2074942;28;20201;-67
2024/03/07 08:17:19;;;;;;;26.67;18.77;;;;;;;10.09;64.00;96916.69;2077352;28;20201;-67
2024/03/07 08:18:21;;;;;;;29.90;19.10;;;;;;;10.03;63.11;96916.91;2076738;28;20216;-67
2024/03/07 08:19:24;;;;;;;30.50;20.50;;;;;;;9.69;63.23;96910.34;2075317;28;20301;-67
2024/03/07 08:20:27;;;;;;;27.25;19.25;;;;;;;8.88;65.45;96920.13;2073860;28;20841;-68
2024/03/07 08:21:28;;;;;;;26.85;18.90;;;;;;;9.35;65.74;96916.78;2074030;28;20606;-67
2024/03/07 08:22:30;;;;;;;30.23;21.52;;;;;;;9.27;65.00;96911.84;2076820;28;20649;-68
2024/03/07 08:23:31;;;;;;;29.60;18.55;;;;;;;9.82;64.10;96907.28;2071687;28;20883;-67
2024/03/07 08:24:33;;;;;;;35.15;20.77;;;;;;;8.43;65.17;96913.75;2071030;28;20745;-67
2024/03/07 08:25:34;;;;;;;31.08;19.58;;;;;;;8.72;65.70;96911.94;2070305;28;20255;-67
2024/03/07 08:26:36;;;;;;;30.45;19.90;;;;;;;8.79;66.71;96913.47;2069745;28;20263;-67
2024/03/07 08:27:40;;;;;;;30.13;18.95;;;;;;;9.19;66.02;96916.44;2070869;28;20676;-67
2024/03/07 08:28:41;;;;;;;28.98;18.17;;;;;;;9.72;64.45;96907.63;2071032;28;20229;-67
2024/03/07 08:29:43;;;;;;;35.08;19.27;;;;;;;9.72;64.19;96906.78;2071466;28;20580;-67
2024/03/07 08:30:44;;;;;;;29.42;19.45;;;;;;;8.12;63.83;96916.44;2070491;28;20197;-68
2024/03/07 08:31:46;;;;;;;30.45;19.88;;;;;;;8.07;66.80;96918.31;2070113;28;20236;-67
2024/03/07 08:32:55;;;;;;;33.85;21.38;;;;;;;8.09;68.40;96919.16;2069573;28;20600;-68
2024/03/07 08:33:56;;;;;;;32.72;21.23;;;;;;;7.74;69.21;96916.66;2069587;28;20234;-67
2024/03/07 08:34:58;;;;;;;32.40;20.00;;;;;;;7.16;69.89;96908.75;2071532;28;20229;-67
2024/03/07 08:36:00;;;;;;;34.53;22.27;;;;;;;7.15;71.33;96909.66;2071026;28;20224;-67
2024/03/07 08:37:04;;;;;;;30.13;20.02;;;;;;;6.94;72.88;96911.06;2069564;28;20198;-67
2024/03/07 08:38:08;;;;;;;31.63;21.40;;;;;;;6.79;73.41;96920.09;2068418;28;20204;-67
2024/03/07 08:39:10;;;;;;;36.92;22.67;;;;;;;6.53;74.33;96919.00;2069355;28;20857;-68
2024/03/07 08:40:21;;;;;;;34.28;21.85;;;;;;;6.40;75.36;96920.19;2069590;28;20214;-67
2024/03/07 08:41:31;;;;;;;33.72;20.98;;;;;;;6.25;75.98;96909.28;2070488;28;20285;-67
2024/03/07 08:42:33;;;;;;;40.08;22.52;;;;;;;5.95;76.07;96903.03;2071452;28;20193;-67
2024/03/07 08:43:35;;;;;;;41.45;24.35;;;;;;;6.02;76.17;96915.00;2069655;28;20229;-67
2024/03/07 08:44:37;;;;;;;37.20;23.95;;;;;;;5.78;77.49;96904.25;2072201;28;20202;-67
2024/03/07 08:45:38;;;;;;;36.15;21.60;;;;;;;5.55;77.55;96909.91;2071890;28;20232;-67
2024/03/07 08:46:41;;;;;;;40.97;24.73;;;;;;;4.65;75.45;96923.66;2071849;28;20194;-67
2024/03/07 08:47:43;;;;;;;37.42;21.73;;;;;;;4.47;75.41;96917.91;2071766;28;20205;-67
2024/03/07 08:48:45;;;;;;;44.08;25.98;;;;;;;3.83;80.38;96911.94;2070615;28;20221;-66
2024/03/07 08:49:46;;;;;;;41.38;24.73;;;;;;;4.17;79.80;96917.47;2071547;28;20207;-66
2024/03/07 08:50:48;;;;;;;43.28;25.35;;;;;;;4.04;81.20;96911.66;2072511;28;20645;-67
2024/03/07 08:51:50;;;;;;;39.53;23.92;;;;;;;4.32;81.41;96900.03;2071802;28;20213;-67
2024/03/07 08:52:51;;;;;;;39.20;24.67;;;;;;;4.50;81.35;96909.22;2070653;28;20210;-67
2024/03/07 08:53:53;;;;;;;38.97;24.42;;;;;;;4.38;81.81;96898.22;2071505;28;20300;-68
2024/03/07 08:54:55;;;;;;;41.10;24.75;;;;;;;4.40;81.59;96893.00;2072389;28;20743;-67
2024/03/07 08:55:58;;;;;;;43.83;24.27;;;;;;;4.47;82.02;96912.72;2071709;28;20198;-67
2024/03/07 08:57:00;;;;;;;36.85;22.23;;;;;;;4.38;80.19;96903.38;2070084;28;20228;-68
2024/03/07 09:03:31;;;;;;;55.40;27.60;;;;;;;3.40;86.66;96905.59;2097263;27;20565;-65
2024/03/07 09:04:32;;;;;;;52.30;27.88;;;;;;;3.55;86.45;96886.47;2088573;28;20200;-65
2024/03/07 09:05:34;;;;;;;53.40;29.20;;;;;;;3.80;86.28;96909.41;2086303;28;20234;-67
2024/03/07 09:09:53;;;;;;;57.65;28.48;;;;;;;3.93;84.45;96903.19;2083518;28;20577;-66
2024/03/07 09:10:55;;;;;;;62.92;31.25;;;;;;;4.07;83.96;96898.66;2078289;28;20445;-66
2024/03/07 09:11:57;;;;;;;54.85;29.40;;;;;;;3.66;84.11;96904.44;2078504;28;20205;-67
2024/03/07 09:12:59;;;;;;;48.53;26.42;;;;;;;3.51;84.27;96902.91;2078565;28;20231;-66
2024/03/07 09:14:01;;;;;;;48.78;28.02;;;;;;;3.40;84.81;96901.31;2061770;28;20210;-66
2024/03/07 09:15:04;;;;;;;57.13;29.27;;;;;;;3.95;84.81;96893.69;2065797;28;20222;-66
2024/03/07 09:16:07;;;;;;;53.17;28.70;;;;;;;4.28;84.44;96880.28;2078755;28;20208;-61
2024/03/07 09:17:08;;;;;;;56.10;28.42;;;;;;;3.50;82.69;96880.53;2078338;28;20762;-61
2024/03/07 09:18:10;;;;;;;49.28;27.23;;;;;;;3.33;84.91;96899.66;2066741;28;20209;-61
2024/03/07 09:19:19;;;;;;;54.28;29.08;;;;;;;4.07;85.06;96900.41;2062158;28;20199;-61
2024/03/07 09:20:21;;;;;;;45.08;26.42;;;;;;;4.38;82.77;96885.28;2065099;28;20203;-62
2024/03/07 09:21:23;;;;;;;48.53;27.00;;;;;;;4.04;82.45;96903.88;2063016;28;20351;-62
2024/03/07 09:22:25;;;;;;;54.53;26.58;;;;;;;3.50;83.52;96885.69;2064504;28;20206;-61
2024/03/07 09:23:26;;;;;;;44.88;24.00;;;;;;;3.67;83.25;96880.28;2059926;28;20219;-61
2024/03/07 09:24:28;;;;;;;49.40;28.08;;;;;;;3.34;85.14;96903.09;2060542;28;20206;-61
2024/03/07 09:28:50;;;;;;;53.05;28.27;;;;;;;3.33;86.96;96897.06;2089878;27;21106;-62
2024/03/07 09:32:34;;;;;;;53.55;28.52;;;;;;;3.35;87.26;96890.19;2084204;28;20571;-62
2024/03/07 09:36:08;;;;;;;54.28;29.88;;;;;;;2.83;89.48;96898.47;2084538;28;20559;-62
2024/03/07 09:39:34;;;;;;;55.83;27.73;;;;;;;2.87;86.56;96880.38;2084777;27;21058;-59
2024/03/07 09:43:01;;;;;;;60.28;28.45;;;;;;;2.71;87.96;96874.50;2104157;27;20567;-61
2024/03/07 09:46:02;;;;;;;54.70;28.55;;;;;;;3.45;86.73;96897.81;2093183;28;20570;-61
2024/03/07 09:47:05;;;;;;;52.28;28.70;;;;;;;3.46;86.65;96899.53;2088343;28;20678;-61
2024/03/07 09:48:09;;;;;;;62.78;30.00;;;;;;;3.28;86.24;96880.78;2080905;28;20196;-62
2024/03/07 09:49:13;;;;;;;60.60;30.25;;;;;;;2.94;86.64;96888.91;2082698;28;20284;-62
2024/03/07 09:50:21;;;;;;;68.43;33.70;;;;;;;2.73;87.43;96877.06;2081754;28;20884;-61
2024/03/07 09:51:24;;;;;;;61.63;30.90;;;;;;;3.13;86.90;96865.50;2089803;28;20199;-62
2024/03/07 09:52:27;;;;;;;58.45;30.50;;;;;;;4.06;86.01;96867.69;2086873;28;20783;-61
2024/03/07 09:53:28;;;;;;;173.70;86.88;;;;;;;4.85;83.85;96889.66;2081578;28;20746;-63
2024/03/07 09:54:30;;;;;;;200.40;100.75;;;;;;;5.02;82.70;96879.00;2083454;28;20630;-65
2024/03/07 09:55:31;;;;;;;90.47;48.75;;;;;;;5.48;81.87;96885.84;2082021;28;20192;-62
2024/03/07 09:56:36;;;;;;;75.50;38.50;;;;;;;5.61;80.86;96857.97;2082900;28;20554;-62
2024/03/07 09:57:38;;;;;;;88.63;38.55;;;;;;;5.95;79.64;96874.50;2078454;28;20235;-67
2024/03/07 09:58:41;;;;;;;59.75;30.33;;;;;;;6.06;78.67;96875.16;2077842;28;20256;-67
2024/03/07 09:59:46;;;;;;;53.08;29.05;;;;;;;5.32;79.16;96880.16;2083993;28;20553;-67
2024/03/07 10:00:50;;;;;;;48.05;28.35;;;;;;;4.71;81.60;96880.41;2084604;28;20212;-67
2024/03/07 10:01:55;;;;;;;50.92;29.17;;;;;;;5.17;81.75;96885.63;2079952;28;20392;-68
2024/03/07 10:02:58;;;;;;;54.22;29.67;;;;;;;5.87;80.69;96879.88;2065912;28;20289;-66
2024/03/07 10:04:09;;;;;;;58.60;29.55;;;;;;;5.92;80.11;96878.03;2081069;28;20210;-67
2024/03/07 10:05:15;;;;;;;51.58;27.83;;;;;;;6.36;78.65;96881.34;2079395;28;20255;-67
2024/03/07 10:06:17;;;;;;;51.30;27.45;;;;;;;5.92;78.21;96878.03;2081083;28;20247;-68
2024/03/07 10:07:18;;;;;;;57.13;30.15;;;;;;;6.30;78.42;96876.31;2082746;28;20206;-68
2024/03/07 10:08:22;;;;;;;53.22;29.15;;;;;;;6.18;77.28;96885.25;2082117;28;20217;-67
2024/03/07 10:09:24;;;;;;;60.67;29.35;;;;;;;6.00;77.77;96877.88;2090639;28;20226;-67
2024/03/07 10:10:26;;;;;;;55.47;28.20;;;;;;;6.25;77.52;96879.88;2089553;28;20752;-67
2024/03/07 10:11:28;;;;;;;50.60;29.27;;;;;;;6.44;78.35;96881.16;2082625;28;20211;-68
2024/03/07 10:12:31;;;;;;;55.83;29.60;;;;;;;6.55;78.90;96886.06;2081810;28;20255;-68
2024/03/07 10:13:32;;;;;;;52.60;28.95;;;;;;;6.68;78.10;96878.88;2076027;28;20243;-68
2024/03/07 10:14:34;;;;;;;58.45;27.67;;;;;;;6.77;77.46;96883.81;2078366;28;20208;-68
2024/03/07 10:15:37;;;;;;;51.08;28.38;;;;;;;6.56;77.23;96869.63;2082191;28;20206;-68
2024/03/07 10:16:41;;;;;;;51.97;28.73;;;;;;;6.40;78.99;96879.53;2081431;28;20205;-68
2024/03/07 10:17:44;;;;;;;56.22;29.98;;;;;;;5.69;78.36;96866.41;2082134;28;20246;-68
2024/03/07 10:18:50;;;;;;;58.55;30.27;;;;;;;5.80;78.15;96879.16;2076722;28;20284;-68
2024/03/07 10:19:53;;;;;;;59.03;29.83;;;;;;;5.98;78.16;96867.56;2081915;28;20209;-67
2024/03/07 10:20:55;;;;;;;53.53;29.27;;;;;;;6.11;78.44;96888.03;2085226;28;20689;-67
2024/03/07 10:22:01;;;;;;;55.63;29.80;;;;;;;5.80;78.36;96878.28;2081749;28;20196;-67
2024/03/07 10:23:03;;;;;;;49.75;29.30;;;;;;;6.00;79.68;96870.94;2077703;28;20200;-68
2024/03/07 10:24:11;;;;;;;50.05;27.75;;;;;;;5.88;78.68;96881.56;2086667;28;20206;-67
2024/03/07 10:25:12;;;;;;;56.17;30.20;;;;;;;6.05;79.22;96879.47;2086900;28;20204;-68
2024/03/07 10:26:15;;;;;;;62.85;28.35;;;;;;;5.90;78.14;96877.19;2082222;28;20291;-68
2024/03/07 10:27:20;;;;;;;48.65;28.08;;;;;;;5.79;79.37;96877.44;2081161;28;20197;-67
2024/03/07 10:28:21;;;;;;;50.60;28.77;;;;;;;5.65;78.98;96885.53;2080597;28;20229;-67
2024/03/07 10:29:24;;;;;;;46.47;26.60;;;;;;;5.73;78.79;96882.75;2080987;28;20204;-67
2024/03/07 10:30:27;;;;;;;52.75;26.50;;;;;;;5.87;78.97;96879.88;2082279;28;20287;-68
2024/03/07 10:31:32;;;;;;;50.00;26.38;;;;;;;5.87;78.77;96872.09;2082049;28;20594;-67
2024/03/07 10:32:36;;;;;;;53.40;28.88;;;;;;;5.70;79.79;96873.31;2083849;28;20220;-68
2024/03/07 10:33:39;;;;;;;50.13;28.85;;;;;;;5.88;79.79;96884.16;2080437;28;20239;-67
2024/03/07 10:34:46;;;;;;;54.55;30.35;;;;;;;5.80;78.24;96878.28;2082573;28;20571;-67
2024/03/07 10:35:49;;;;;;;45.13;26.55;;;;;;;5.14;77.85;96871.00;2082117;28;20375;-67
2024/03/07 10:36:51;;;;;;;50.25;26.88;;;;;;;5.20;78.34;96876.03;2080393;28;20579;-62
2024/03/07 10:37:54;;;;;;;52.72;26.80;;;;;;;5.51;79.08;96872.84;2077996;28;20235;-62
2024/03/07 10:39:12;;;;;;;66.90;27.42;;;;;;;5.55;78.73;96874.50;2078068;28;21089;-62
2024/03/07 10:40:17;;;;;;;55.72;27.48;;;;;;;5.83;79.00;96876.50;2082856;28;20677;-63
2024/03/07 10:41:19;;;;;;;47.75;26.27;;;;;;;5.35;77.73;96864.53;2082514;28;20368;-62
2024/03/07 10:42:24;;;;;;;51.15;25.55;;;;;;;5.22;78.83;96868.28;2082987;28;20214;-62
2024/03/07 10:43:29;;;;;;;55.33;26.52;;;;;;;5.45;78.43;96862.63;2079783;28;20705;-62
2024/03/07 10:44:32;;;;;;;49.50;26.80;;;;;;;5.18;78.36;96874.38;2078209;28;20850;-61
2024/03/07 10:45:57;;;;;;;44.58;25.05;;;;;;;4.23;78.28;96875.19;2082025;28;20906;-62
2024/03/07 10:47:03;;;;;;;46.92;24.15;;;;;;;3.73;80.06;96872.47;2089245;28;20212;-62
2024/03/07 10:48:11;;;;;;;45.00;24.05;;;;;;;3.63;81.60;96871.75;2080523;28;20295;-61
2024/03/07 10:49:15;;;;;;;47.50;27.67;;;;;;;3.70;82.44;96872.50;2081852;28;20196;-62
2024/03/07 10:50:31;;;;;;;55.90;27.88;;;;;;;3.89;82.42;96883.44;2081895;28;20235;-64
2024/03/07 10:51:39;;;;;;;44.22;24.90;;;;;;;3.33;82.29;96879.00;2081059;28;20193;-61
2024/03/07 10:52:50;;;;;;;51.30;24.88;;;;;;;3.22;83.27;96871.38;2080703;28;20546;-62
2024/03/07 10:54:22;;;;;;;56.25;28.55;;;;;;;3.37;83.75;96877.25;2078079;28;20656;-62
2024/03/07 10:55:38;;;;;;;50.55;26.15;;;;;;;3.53;83.48;96870.13;2072091;28;20213;-62
2024/03/07 10:57:14;;;;;;;47.85;25.70;;;;;;;3.84;82.09;96875.75;2081871;28;20196;-61
2024/03/07 10:58:47;;;;;;;55.15;27.58;;;;;;;4.40;80.40;96867.16;2080482;28;20232;-62
2024/03/07 10:59:58;;;;;;;55.00;27.75;;;;;;;4.10;80.57;96874.50;2074893;28;20236;-61
2024/03/07 11:01:03;;;;;;;48.35;23.85;;;;;;;4.38;79.77;96872.34;2075931;28;20321;-61
2024/03/07 11:02:24;;;;;;;48.55;25.48;;;;;;;5.15;78.75;96870.09;2077662;28;20268;-62
2024/03/07 11:03:26;;;;;;;48.58;25.23;;;;;;;5.22;77.73;96866.53;2075763;28;20778;-62
2024/03/07 11:04:29;;;;;;;45.22;24.10;;;;;;;5.52;76.21;96853.84;2076512;28;20292;-62
2024/03/07 11:05:31;;;;;;;49.35;25.00;;;;;;;6.49;73.55;96858.56;2072569;28;20202;-62
2024/03/07 11:06:37;;;;;;;42.58;24.50;;;;;;;6.31;72.62;96856.41;2076147;28;20296;-64
2024/03/07 11:07:40;;;;;;;47.10;23.77;;;;;;;7.06;71.78;96852.75;2076937;28;20209;-62
2024/03/07 11:08:42;;;;;;;46.63;23.50;;;;;;;6.92;71.70;96856.59;2075426;28;20225;-62
2024/03/07 11:09:46;;;;;;;47.30;24.70;;;;;;;5.95;71.52;96854.59;2072603;28;20264;-62
2024/03/07 11:10:48;;;;;;;42.13;23.20;;;;;;;6.47;73.51;96856.88;2073939;28;20278;-62
2024/03/07 11:11:49;;;;;;;47.90;24.35;;;;;;;6.19;72.06;96858.41;2076779;28;20228;-61
2024/03/07 11:12:53;;;;;;;47.53;23.02;;;;;;;5.98;73.41;96854.59;2076669;28;20209;-63
2024/03/07 11:13:55;;;;;;;44.72;23.75;;;;;;;5.51;74.13;96861.63;2075890;28;20228;-61
2024/03/07 11:14:58;;;;;;;43.80;23.20;;;;;;;4.69;75.86;96864.06;2075344;28;20673;-61
2024/03/07 11:16:01;;;;;;;42.88;24.25;;;;;;;4.81;77.45;96855.25;2075502;28;20197;-61
2024/03/07 11:17:03;;;;;;;47.58;25.40;;;;;;;5.01;77.03;96861.75;2075229;28;20292;-62
2024/03/07 11:18:08;;;;;;;54.10;24.95;;;;;;;5.20;76.15;96851.91;2074994;28;20201;-62
2024/03/07 11:19:27;;;;;;;51.08;24.00;;;;;;;5.25;76.87;96863.00;2076223;28;20206;-62
2024/03/07 11:20:36;;;;;;;47.75;23.75;;;;;;;5.03;77.14;96855.69;2076300;28;20213;-62
2024/03/07 11:21:42;;;;;;;50.97;24.38;;;;;;;4.71;76.37;96851.97;2077556;28;20193;-62
2024/03/07 11:22:45;;;;;;;41.60;24.40;;;;;;;5.17;76.89;96857.16;2074757;28;20296;-62
2024/03/07 11:23:47;;;;;;;46.28;24.83;;;;;;;5.53;76.88;96821.00;2075486;28;20228;-62
2024/03/07 11:25:06;;;;;;;48.70;24.85;;;;;;;6.99;72.64;96842.53;2076094;28;20223;-62
2024/03/07 11:26:10;;;;;;;51.90;24.75;;;;;;;6.74;72.95;96842.34;2074996;28;20207;-62
2024/03/07 11:27:15;;;;;;;56.38;24.13;;;;;;;6.47;72.54;96834.38;2079858;28;20262;-62
2024/03/07 11:28:20;;;;;;;43.72;24.50;;;;;;;6.25;73.48;96836.66;2078337;28;25127;-62
2024/03/07 11:29:47;;;;;;;45.47;23.83;;;;;;;5.93;73.94;96834.78;2076438;28;20206;-62
2024/03/07 11:30:49;;;;;;;42.70;22.85;;;;;;;5.68;75.54;96823.25;2079987;28;20205;-61
2024/03/07 11:31:53;;;;;;;47.42;22.92;;;;;;;6.03;73.55;96841.50;2081327;28;20693;-61
2024/03/07 11:32:55;;;;;;;48.20;23.35;;;;;;;6.55;72.62;96841.97;2079936;28;20250;-61
2024/03/07 11:34:18;;;;;;;44.55;24.13;;;;;;;6.43;71.71;96831.91;2080669;28;20205;-62
2024/03/07 11:35:32;;;;;;;43.00;22.05;;;;;;;5.54;74.56;96825.31;2075650;28;20225;-61
2024/03/07 11:36:46;;;;;;;44.22;24.13;;;;;;;5.77;75.26;96818.75;2075522;28;20201;-62
2024/03/07 11:37:48;;;;;;;48.58;24.77;;;;;;;5.75;74.40;96825.72;2075125;28;20632;-61
2024/03/07 11:38:51;;;;;;;45.42;21.65;;;;;;;5.84;73.40;96816.00;2077410;28;20228;-62
2024/03/07 11:39:55;;;;;;;43.10;23.38;;;;;;;6.26;72.37;96825.41;2072399;28;20237;-62
2024/03/07 11:41:01;;;;;;;44.17;23.63;;;;;;;5.80;73.23;96804.00;2073047;28;20198;-61
2024/03/07 11:42:06;;;;;;;40.33;22.58;;;;;;;5.41;75.44;96824.72;2076741;28;20198;-62
2024/03/07 11:43:07;;;;;;;46.33;25.27;;;;;;;5.73;75.94;96820.56;2076006;28;20197;-62
2024/03/07 11:44:12;;;;;;;45.53;22.85;;;;;;;5.86;75.51;96819.38;2075543;28;20337;-62
2024/03/07 11:45:32;;;;;;;43.80;21.30;;;;;;;5.98;74.46;96813.13;2076123;28;20671;-62
2024/03/07 11:46:34;;;;;;;51.55;22.73;;;;;;;5.76;75.28;96822.25;2083729;28;20577;-62
2024/03/07 11:47:38;;;;;;;46.70;23.08;;;;;;;5.34;76.06;96800.66;2083172;28;20751;-62
2024/03/07 11:48:44;;;;;;;39.03;20.45;;;;;;;5.32;74.63;96810.22;2074930;28;20783;-62
2024/03/07 11:49:49;;;;;;;44.13;23.75;;;;;;;5.10;76.46;96808.97;2076311;28;20200;-62
2024/03/07 11:50:50;;;;;;;43.25;22.30;;;;;;;5.77;76.28;96811.00;2075790;28;20849;-62
2024/03/07 11:51:52;;;;;;;43.15;21.67;;;;;;;6.19;75.46;96819.50;2076418;28;20209;-62
2024/03/07 11:52:55;;;;;;;44.20;20.83;;;;;;;5.14;73.35;96816.66;2075711;28;20204;-62
2024/03/07 11:53:56;;;;;;;42.42;22.77;;;;;;;5.07;75.88;96804.69;2075435;28;20655;-63
2024/03/07 11:55:03;;;;;;;40.92;21.60;;;;;;;5.31;76.42;96811.09;2072428;28;20257;-62
2024/03/07 11:56:16;;;;;;;40.15;21.23;;;;;;;5.26;76.04;96818.13;2076611;28;20202;-62
2024/03/07 11:57:32;;;;;;;44.70;23.15;;;;;;;5.00;77.28;96811.75;2072587;28;20194;-63
2024/03/07 11:58:40;;;;;;;41.72;23.55;;;;;;;5.73;77.65;96807.59;2073328;28;20311;-62
2024/03/07 11:59:45;;;;;;;55.70;23.38;;;;;;;6.11;76.21;96805.06;2078284;28;20209;-64
2024/03/07 12:00:48;;;;;;;47.15;24.20;;;;;;;6.24;75.14;96798.66;2078346;28;20235;-63
2024/03/07 12:01:50;;;;;;;45.80;22.45;;;;;;;6.04;74.76;96799.13;2075229;28;20215;-63
2024/03/07 12:02:54;;;;;;;40.60;21.70;;;;;;;5.96;75.34;96786.34;2077133;28;20205;-63
2024/03/07 12:03:55;;;;;;;60.90;25.15;;;;;;;6.25;75.12;96791.72;2076220;28;20231;-62
2024/03/07 12:04:58;;;;;;;42.95;23.27;;;;;;;6.26;74.43;96778.72;2077231;28;20261;-64
2024/03/07 12:06:00;;;;;;;42.35;21.10;;;;;;;6.02;74.73;96749.09;2077701;28;20220;-63
2024/03/07 12:07:05;;;;;;;45.08;23.58;;;;;;;6.40;74.73;96790.47;2073689;28;20714;-63
2024/03/07 12:08:09;;;;;;;45.75;22.15;;;;;;;6.02;74.07;96765.47;2070756;28;20715;-63
2024/03/07 12:09:23;;;;;;;38.75;21.42;;;;;;;6.16;74.31;96785.88;2077302;28;20258;-63
2024/03/07 12:10:24;;;;;;;46.38;22.80;;;;;;;6.26;74.72;96799.47;2075901;28;20754;-63
2024/03/07 12:11:27;;;;;;;40.65;22.40;;;;;;;6.60;75.13;96793.44;2076149;28;20200;-63
2024/03/07 12:12:29;;;;;;;39.30;21.90;;;;;;;6.40;73.85;96798.25;2076773;28;20311;-64
2024/03/07 12:13:32;;;;;;;38.92;22.35;;;;;;;6.57;74.07;96793.50;2074499;28;20225;-64
2024/03/07 12:14:35;;;;;;;43.95;22.40;;;;;;;6.99;73.75;96789.78;2073353;28;20229;-63
2024/03/07 12:15:38;;;;;;;39.85;20.63;;;;;;;7.14;72.04;96781.53;2073866;28;20208;-63
2024/03/07 12:16:40;;;;;;;44.28;22.90;;;;;;;6.81;71.06;96791.97;2072366;28;20670;-62
2024/03/07 12:17:43;;;;;;;39.25;21.77;;;;;;;7.37;69.84;96789.56;2074722;28;20205;-63
2024/03/07 12:18:45;;;;;;;41.35;20.95;;;;;;;6.46;70.39;96785.13;2083273;28;20239;-62
2024/03/07 12:19:47;;;;;;;39.38;20.13;;;;;;;6.40;71.97;96782.69;2082320;28;20252;-64
2024/03/07 12:20:54;;;;;;;46.67;22.85;;;;;;;6.63;71.11;96792.50;2074634;28;20253;-63
2024/03/07 12:22:00;;;;;;;49.42;22.23;;;;;;;6.59;71.63;96788.25;2076308;28;20608;-67
2024/03/07 12:23:05;;;;;;;52.45;23.00;;;;;;;6.36;71.69;96777.59;2073381;28;20193;-67
2024/03/07 12:24:13;;;;;;;45.55;22.42;;;;;;;7.31;72.05;96785.41;2079912;28;20204;-62
2024/03/07 12:25:21;;;;;;;55.45;24.65;;;;;;;7.84;70.92;96785.50;2084357;28;20616;-67
2024/03/07 12:26:25;;;;;;;40.90;22.90;;;;;;;8.21;71.14;96770.47;2083099;28;20287;-68
2024/03/07 12:27:27;;;;;;;44.17;23.35;;;;;;;8.06;70.38;96752.75;2076832;28;20205;-68
2024/03/07 12:28:34;;;;;;;46.30;24.77;;;;;;;8.13;70.00;96747.31;2075626;28;20233;-68
2024/03/07 12:29:39;;;;;;;47.58;24.10;;;;;;;7.12;69.56;96767.78;2078487;28;20205;-68
2024/03/07 12:30:49;;;;;;;51.65;23.70;;;;;;;7.01;71.25;96757.69;2077340;28;20201;-68